Portada
METAR-TAF:

METAR-TAF

Aeroports :

Sevilla, Espanya

latitud: 37-25N, longitud: 005-54W, altitud: 34 m

Observació

L'informe es va fer fa 16 minuts, a les 07:30 UTC
Vent calma
Temperatura 8°C
Humitat 100%
Pressió 1023 hPa
Visibilitat: 8000 m
Boira superficial

METAR: LEZL 260730Z 00000KT 8000 MIFG NSC 08/08 Q1023 NOSIG

Hora: 08:46 (07:46 UTC)

Pronòstic

L'informe es va fer fa 59 minuts, a les 06:47 UTC
Pronòstic vàlid del 26 a les 06 UTC al 27 a les 03 UTC
Vent 6 kt del Nord-Oest
Visibilitat 10 km o més
sense núvols per sota de 1500 mi sense presència de cumulonimbus.
Temporalment
l' 26 a les 06 UTC al 26 a les 09 UTC
Visibilitat: 3000 m
boirina
Probabilitat 40% :
Temporalment
l' 26 a les 06 UTC al 26 a les 08 UTC
Visibilitat: 1000 m
boira en bancs

TAF: LEZL 260647Z 2606/2703 31006KT CAVOK TX21/2615Z TN09/2606Z TEMPO 2606/2609 3000 BR PROB40 TEMPO 2606/2608 1000 BCFG

Observacions i pronòstics meteorològics de més de 4000 aeroports (METAR i TAF).

Les estacions disponibles són els punts grocs i vermells al mapa.

Posi el ratolí al punt desitjat per veure el nom de l'estació.

Feu clic per veure les observacions i els pronòstics meteorològics.

Per canviar el mapa: feu clic els botons verds amb una creu de color negre per apropar; al botó verd amb un guió per allunyar la imatge; o en les fletxes verdes per a mapes adjacents.


METAR-TAF: